createdAt,value
2022-08-17T00:00:36.909Z,41.87
2022-08-17T00:03:17.798Z,39.60
2022-08-17T00:05:49.408Z,49.17
2022-08-17T00:08:38.562Z,47.33
2022-08-17T00:11:11.171Z,51.07
2022-08-17T00:14:02.030Z,44.37
2022-08-17T00:16:53.464Z,41.70
2022-08-17T00:19:25.594Z,41.27
2022-08-17T00:22:34.061Z,37.07
2022-08-17T00:24:49.484Z,36.50
2022-08-17T00:27:19.934Z,32.37
2022-08-17T00:29:49.013Z,28.23
2022-08-17T00:33:14.164Z,26.43
2022-08-17T00:35:09.963Z,24.77
2022-08-17T00:37:38.900Z,24.33
2022-08-17T00:40:10.178Z,25.53
2022-08-17T00:42:58.976Z,24.50
2022-08-17T00:45:28.421Z,24.47
2022-08-17T00:47:57.367Z,26.10
2022-08-17T00:50:26.599Z,27.27
2022-08-17T00:52:57.708Z,27.07
2022-08-17T00:55:27.984Z,27.57
2022-08-17T00:58:02.597Z,28.60
2022-08-17T01:00:35.637Z,28.97
2022-08-17T01:03:08.973Z,27.53
2022-08-17T01:05:42.314Z,25.90
2022-08-17T01:08:14.744Z,25.23
2022-08-17T01:10:59.457Z,28.30
2022-08-17T01:13:40.712Z,26.57
2022-08-17T01:16:17.390Z,25.40
2022-08-17T01:18:49.424Z,24.20
2022-08-17T01:21:26.030Z,24.03
2022-08-17T01:23:56.971Z,23.77
2022-08-17T01:26:26.033Z,24.90
2022-08-17T01:28:56.034Z,23.63
2022-08-17T01:31:29.229Z,23.07
2022-08-17T01:33:59.778Z,23.53
2022-08-17T01:36:31.530Z,22.70
2022-08-17T01:39:01.868Z,23.73
2022-08-17T01:41:31.289Z,28.20
2022-08-17T01:44:03.321Z,33.53
2022-08-17T01:46:35.087Z,33.60
2022-08-17T01:49:07.980Z,36.73
2022-08-17T01:51:37.214Z,35.57
2022-08-17T01:54:10.377Z,39.63
2022-08-17T01:56:47.842Z,38.47
2022-08-17T01:59:17.049Z,37.30
2022-08-17T02:01:46.947Z,39.80
2022-08-17T02:04:16.874Z,38.07
2022-08-17T02:06:53.715Z,35.50
2022-08-17T02:09:27.160Z,34.33
2022-08-17T02:12:39.444Z,32.87
2022-08-17T02:14:53.278Z,30.07
2022-08-17T02:17:22.370Z,26.10
2022-08-17T02:19:51.418Z,25.90
2022-08-17T02:22:20.959Z,24.50
2022-08-17T02:25:00.319Z,23.50
2022-08-17T02:27:31.208Z,21.87
2022-08-17T02:30:00.204Z,21.37
2022-08-17T02:32:29.632Z,20.60
2022-08-17T02:34:58.506Z,20.63
2022-08-17T02:37:27.974Z,20.50
2022-08-17T02:39:59.817Z,19.17
2022-08-17T02:42:31.715Z,20.13
2022-08-17T02:45:00.691Z,21.53
2022-08-17T02:47:30.033Z,20.90
2022-08-17T02:49:59.092Z,20.07
2022-08-17T02:52:41.937Z,18.87
2022-08-17T02:55:16.631Z,19.53
2022-08-17T02:57:46.032Z,19.60
2022-08-17T03:00:18.359Z,19.60
2022-08-17T03:02:47.975Z,20.40
2022-08-17T03:05:22.294Z,21.40
2022-08-17T03:07:52.078Z,22.40
2022-08-17T03:10:24.868Z,21.13
2022-08-17T03:12:56.230Z,23.27
2022-08-17T03:15:29.085Z,23.33
2022-08-17T03:17:58.633Z,21.77
2022-08-17T03:20:29.219Z,25.33
2022-08-17T03:23:01.995Z,27.17
2022-08-17T03:25:35.843Z,33.10
2022-08-17T03:28:07.070Z,36.13
2022-08-17T03:30:54.825Z,38.83
2022-08-17T03:33:24.279Z,39.63
2022-08-17T03:35:53.855Z,37.60
2022-08-17T03:38:23.332Z,35.17
2022-08-17T03:40:57.338Z,36.83
2022-08-17T03:43:30.361Z,35.57
2022-08-17T03:46:32.457Z,34.70
2022-08-17T03:49:23.800Z,31.27
2022-08-17T03:52:10.276Z,31.23
2022-08-17T03:54:57.108Z,29.83
2022-08-17T03:57:28.415Z,28.40
2022-08-17T04:00:17.351Z,27.77
2022-08-17T04:02:46.805Z,27.90
2022-08-17T04:05:16.355Z,25.73
2022-08-17T04:07:45.754Z,24.47
2022-08-17T04:10:14.938Z,24.27
2022-08-17T04:12:50.852Z,23.80
2022-08-17T04:15:20.290Z,25.33
2022-08-17T04:17:49.348Z,21.60
2022-08-17T04:20:20.020Z,20.40
2022-08-17T04:22:59.586Z,20.20
2022-08-17T04:25:29.815Z,21.23
2022-08-17T04:28:01.005Z,21.03
2022-08-17T04:30:32.296Z,22.83
2022-08-17T04:33:24.226Z,23.87
2022-08-17T04:35:55.820Z,25.00
2022-08-17T04:38:27.953Z,24.80
2022-08-17T04:41:15.440Z,21.33
2022-08-17T04:43:47.099Z,20.83
2022-08-17T04:46:25.112Z,21.40
2022-08-17T04:48:56.229Z,22.60
2022-08-17T04:51:28.173Z,20.20
2022-08-17T04:53:59.778Z,19.20
2022-08-17T04:56:30.083Z,20.20
2022-08-17T04:59:04.969Z,19.93
2022-08-17T05:01:36.705Z,21.07
2022-08-17T05:04:33.283Z,21.00
2022-08-17T05:06:59.364Z,19.33
2022-08-17T05:09:29.478Z,20.23
2022-08-17T05:12:02.639Z,18.40
2022-08-17T05:14:33.966Z,18.60
2022-08-17T05:17:07.170Z,18.77
2022-08-17T05:19:41.288Z,19.87
2022-08-17T05:22:10.399Z,18.63
2022-08-17T05:24:43.748Z,18.47
2022-08-17T05:27:24.575Z,18.83
2022-08-17T05:29:59.847Z,19.50
2022-08-17T05:32:48.325Z,18.70
2022-08-17T05:35:17.431Z,19.77
2022-08-17T05:37:46.338Z,18.97
2022-08-17T05:40:15.814Z,18.77
2022-08-17T05:42:44.856Z,19.53
2022-08-17T05:45:17.080Z,18.75
2022-08-17T05:48:07.466Z,18.50
2022-08-17T05:50:49.166Z,19.27
2022-08-17T05:53:24.377Z,18.83
2022-08-17T05:56:04.101Z,18.73
2022-08-17T05:58:39.323Z,27.90
2022-08-17T06:01:19.217Z,20.00
2022-08-17T06:03:55.340Z,19.57
2022-08-17T06:06:40.206Z,23.00
2022-08-17T06:12:01.570Z,23.87
2022-08-17T06:14:51.341Z,23.50
2022-08-17T06:17:27.333Z,23.70
2022-08-17T06:19:59.908Z,23.40
2022-08-17T06:22:34.380Z,23.45
2022-08-17T06:25:10.118Z,23.63
2022-08-17T06:27:45.029Z,22.53
2022-08-17T06:30:17.286Z,24.77
2022-08-17T06:32:50.668Z,25.70
2022-08-17T06:35:30.125Z,24.77
2022-08-17T06:38:09.658Z,24.43
2022-08-17T06:41:21.911Z,24.47
2022-08-17T06:44:04.631Z,24.57
2022-08-17T06:46:39.554Z,23.80
2022-08-17T06:49:22.110Z,23.07
2022-08-17T06:51:57.851Z,23.70
2022-08-17T06:54:36.952Z,27.80
2022-08-17T06:57:15.376Z,34.20
2022-08-17T06:59:55.405Z,38.77
2022-08-17T07:02:52.589Z,40.27
2022-08-17T07:05:26.922Z,39.80
2022-08-17T07:08:04.291Z,33.57
2022-08-17T07:10:44.207Z,32.97
2022-08-17T07:13:25.924Z,31.87
2022-08-17T07:16:00.567Z,28.70
2022-08-17T07:18:33.363Z,28.63
2022-08-17T07:21:14.180Z,30.50
2022-08-17T07:24:02.305Z,29.40
2022-08-17T07:26:31.315Z,27.90
2022-08-17T07:36:47.274Z,24.83
2022-08-17T07:39:28.879Z,16.27
2022-08-17T07:52:59.398Z,15.73
2022-08-17T07:55:31.742Z,17.03
2022-08-17T07:58:02.058Z,16.80
2022-08-17T08:00:33.065Z,14.27
2022-08-17T08:03:16.747Z,13.50
2022-08-17T08:05:57.870Z,11.57
2022-08-17T08:08:32.579Z,13.27
2022-08-17T08:11:09.855Z,11.97
2022-08-17T08:13:42.845Z,14.00
2022-08-17T08:16:24.587Z,10.20
2022-08-17T08:18:57.528Z,10.53
2022-08-17T08:21:47.968Z,10.47
2022-08-17T08:24:41.683Z,11.07
2022-08-17T08:27:22.414Z,10.50
2022-08-17T08:29:56.797Z,10.90
2022-08-17T08:32:43.116Z,11.57
2022-08-17T08:35:18.512Z,13.40
2022-08-17T08:37:55.822Z,11.93
2022-08-17T08:40:44.601Z,13.00
2022-08-17T08:43:23.814Z,14.83
2022-08-17T08:45:59.001Z,13.63
2022-08-17T08:48:56.837Z,16.77
2022-08-17T08:51:35.534Z,12.63
2022-08-17T08:54:35.982Z,12.17
2022-08-17T08:57:26.826Z,10.73
2022-08-17T09:00:12.925Z,15.00
2022-08-17T09:03:19.475Z,14.37
2022-08-17T09:06:33.291Z,12.67
2022-08-17T09:09:19.279Z,11.80
2022-08-17T09:12:02.850Z,10.90
2022-08-17T09:14:47.202Z,10.50
2022-08-17T09:17:41.340Z,11.33
2022-08-17T09:20:28.130Z,10.40
2022-08-17T09:23:03.564Z,9.67
2022-08-17T09:25:44.407Z,10.50
2022-08-17T09:28:20.591Z,11.83
2022-08-17T09:31:01.882Z,12.50
2022-08-17T09:33:35.387Z,11.90
2022-08-17T09:36:08.718Z,11.40
2022-08-17T09:38:46.551Z,13.70
2022-08-17T09:41:25.953Z,12.70
2022-08-17T09:44:04.061Z,11.77
2022-08-17T09:46:39.072Z,12.47
2022-08-17T09:49:15.309Z,13.27
2022-08-17T09:51:50.283Z,12.90
2022-08-17T09:54:40.864Z,16.13
2022-08-17T09:57:30.456Z,12.37
2022-08-17T10:00:17.384Z,12.33
2022-08-17T10:03:28.455Z,11.77
2022-08-17T10:06:31.899Z,12.53
2022-08-17T10:09:08.728Z,11.90
2022-08-17T10:12:06.283Z,13.30
2022-08-17T10:14:45.014Z,14.10
2022-08-17T10:17:28.155Z,16.30
2022-08-17T10:20:04.404Z,12.77
2022-08-17T10:22:59.275Z,13.30
2022-08-17T10:25:55.021Z,11.87
2022-08-17T10:28:30.243Z,14.83
2022-08-17T10:31:33.305Z,13.27
2022-08-17T10:34:40.360Z,11.37
2022-08-17T10:37:25.346Z,13.23
2022-08-17T10:40:04.159Z,11.37
2022-08-17T10:42:38.116Z,10.47
2022-08-17T10:45:32.197Z,10.30
2022-08-17T10:48:06.861Z,9.30
2022-08-17T10:51:09.229Z,9.37
2022-08-17T10:54:00.656Z,9.43
2022-08-17T10:56:47.743Z,8.60
2022-08-17T10:59:54.838Z,8.57
2022-08-17T11:02:28.366Z,9.13
2022-08-17T11:05:22.470Z,10.40
2022-08-17T11:08:30.740Z,9.00
2022-08-17T11:11:24.075Z,8.20
2022-08-17T11:14:11.373Z,9.18
2022-08-17T11:16:53.447Z,7.90
2022-08-17T11:19:52.866Z,8.55
2022-08-17T11:22:52.936Z,8.35
2022-08-17T11:25:33.028Z,9.15
2022-08-17T11:28:09.417Z,9.18
2022-08-17T11:30:52.330Z,9.60
2022-08-17T11:33:58.291Z,7.97
2022-08-17T11:37:10.285Z,8.88
2022-08-17T11:39:52.887Z,8.65
2022-08-17T11:42:34.678Z,8.48
2022-08-17T11:45:19.544Z,8.40
2022-08-17T11:48:30.827Z,9.50
2022-08-17T11:51:27.256Z,8.93
2022-08-17T11:57:00.918Z,10.40
2022-08-17T11:59:55.707Z,9.93
2022-08-17T12:02:47.368Z,11.10
2022-08-17T12:05:33.140Z,11.07
2022-08-17T12:08:18.732Z,9.60
2022-08-17T12:11:00.007Z,8.60
2022-08-17T12:13:39.332Z,9.68
2022-08-17T12:16:10.252Z,8.93
2022-08-17T12:18:42.182Z,9.18
2022-08-17T12:21:24.929Z,9.25
2022-08-17T12:24:00.443Z,9.55
2022-08-17T12:26:33.599Z,8.82
2022-08-17T12:29:05.145Z,9.45
2022-08-17T12:31:38.195Z,8.70
2022-08-17T12:34:07.230Z,9.07
2022-08-17T12:36:37.589Z,8.48
2022-08-17T12:39:14.095Z,9.57
2022-08-17T12:41:52.462Z,8.77
2022-08-17T12:44:23.608Z,10.18
2022-08-17T12:47:00.672Z,9.07
2022-08-17T12:49:36.327Z,9.18
2022-08-17T12:52:16.364Z,8.90
2022-08-17T12:54:55.610Z,9.07
2022-08-17T12:57:28.106Z,8.18
2022-08-17T13:00:01.056Z,8.38
2022-08-17T13:02:34.076Z,8.45
2022-08-17T13:05:27.774Z,7.88
2022-08-17T13:08:00.803Z,9.32
2022-08-17T13:10:58.146Z,8.63
2022-08-17T13:13:30.092Z,8.23
2022-08-17T13:16:01.023Z,9.32
2022-08-17T13:18:42.099Z,8.10
2022-08-17T13:21:20.161Z,8.80
2022-08-17T13:24:01.977Z,8.60
2022-08-17T13:26:35.717Z,8.63
2022-08-17T13:29:07.929Z,9.10
2022-08-17T13:31:49.802Z,8.10
2022-08-17T13:35:01.652Z,9.30
2022-08-17T13:37:34.069Z,9.52
2022-08-17T13:40:31.715Z,8.35
2022-08-17T13:43:03.531Z,8.80
2022-08-17T13:45:51.587Z,8.85
2022-08-17T13:48:29.936Z,8.43
2022-08-17T13:51:27.841Z,8.60
2022-08-17T13:54:25.899Z,8.90
2022-08-17T13:57:03.748Z,9.37
2022-08-17T13:59:54.992Z,9.23
2022-08-17T14:02:28.405Z,8.27
2022-08-17T14:05:00.820Z,8.67
2022-08-17T14:07:35.632Z,8.70
2022-08-17T14:10:11.878Z,8.57
2022-08-17T14:12:44.079Z,10.10
2022-08-17T14:15:55.601Z,9.37
2022-08-17T14:18:49.879Z,9.23
2022-08-17T14:21:12.112Z,9.63
2022-08-17T14:23:41.302Z,9.93
2022-08-17T14:26:36.671Z,9.50
2022-08-17T14:29:14.996Z,9.37
2022-08-17T14:31:53.295Z,10.17
2022-08-17T14:34:24.475Z,10.50
2022-08-17T14:36:53.918Z,10.93
2022-08-17T14:39:22.846Z,9.23
2022-08-17T14:41:53.194Z,9.27
2022-08-17T14:44:23.736Z,9.77
2022-08-17T14:46:53.101Z,9.97
2022-08-17T14:49:22.025Z,9.63
2022-08-17T14:51:51.445Z,10.37
2022-08-17T14:57:23.530Z,10.50
2022-08-17T14:59:55.623Z,9.13
2022-08-17T15:02:30.422Z,9.40
2022-08-17T15:05:04.197Z,9.60
2022-08-17T15:07:33.422Z,10.17
2022-08-17T15:10:02.782Z,11.40
2022-08-17T15:12:34.070Z,11.40
2022-08-17T15:15:07.424Z,11.73
2022-08-17T15:17:45.186Z,11.50
2022-08-17T15:20:16.833Z,10.37
2022-08-17T15:22:50.046Z,11.77
2022-08-17T15:25:22.322Z,11.43
2022-08-17T15:27:51.808Z,11.50
2022-08-17T15:40:36.734Z,14.10
2022-08-17T15:43:08.034Z,12.33
2022-08-17T15:45:38.461Z,12.13
2022-08-17T15:48:07.685Z,12.43
2022-08-17T15:50:36.997Z,11.83
2022-08-17T15:53:06.038Z,11.77
2022-08-17T15:55:35.533Z,11.50
2022-08-17T15:58:04.629Z,10.47
2022-08-17T16:00:39.777Z,11.90
2022-08-17T16:04:01.141Z,14.60
2022-08-17T16:06:15.175Z,11.87
2022-08-17T16:08:46.345Z,12.87
2022-08-17T16:11:16.548Z,13.40
2022-08-17T16:19:12.633Z,11.80
2022-08-17T16:21:42.724Z,12.63
2022-08-17T16:24:12.838Z,13.43
2022-08-17T16:26:42.801Z,18.20
2022-08-17T16:29:11.972Z,13.13
2022-08-17T16:31:42.038Z,12.97
2022-08-17T16:34:17.834Z,14.07
2022-08-17T16:36:55.763Z,17.27
2022-08-17T16:39:44.003Z,17.10
2022-08-17T16:42:27.368Z,16.80
2022-08-17T16:45:18.701Z,14.97
2022-08-17T16:47:49.251Z,14.80
2022-08-17T16:50:21.700Z,16.17
2022-08-17T16:52:51.325Z,17.77
2022-08-17T16:55:22.447Z,18.80
2022-08-17T16:57:51.585Z,16.73
2022-08-17T17:00:21.187Z,18.47
2022-08-17T17:02:51.222Z,21.37
2022-08-17T17:05:51.426Z,22.00
2022-08-17T17:08:30.571Z,20.97
2022-08-17T17:11:09.084Z,26.65
2022-08-17T17:13:42.489Z,22.10
2022-08-17T17:16:19.573Z,23.77
2022-08-17T17:19:15.382Z,21.60
2022-08-17T17:21:52.194Z,21.90
2022-08-17T17:24:30.114Z,22.43
2022-08-17T17:27:15.450Z,21.73
2022-08-17T17:29:57.479Z,19.37
2022-08-17T17:32:38.039Z,19.67
2022-08-17T17:35:18.225Z,19.63
2022-08-17T17:37:49.371Z,23.30
2022-08-17T17:40:23.282Z,24.77
2022-08-17T17:42:55.281Z,24.77
2022-08-17T17:45:27.448Z,26.43
2022-08-17T17:47:57.086Z,27.47
2022-08-17T17:50:34.669Z,24.13
2022-08-17T17:53:10.296Z,24.50
2022-08-17T17:55:50.516Z,25.77
2022-08-17T17:58:31.479Z,25.40
2022-08-17T18:01:16.800Z,22.87
2022-08-17T18:04:22.883Z,22.17
2022-08-17T18:07:03.940Z,21.27
2022-08-17T18:10:19.764Z,20.83
2022-08-17T18:13:03.817Z,20.27
2022-08-17T18:15:38.632Z,20.67
2022-08-17T18:18:37.869Z,19.03
2022-08-17T18:21:17.108Z,20.37
2022-08-17T18:23:57.982Z,22.17
2022-08-17T18:26:48.544Z,20.83
2022-08-17T18:29:34.573Z,19.67
2022-08-17T18:32:31.397Z,19.53
2022-08-17T18:35:03.684Z,19.27
2022-08-17T18:37:39.598Z,18.80
2022-08-17T18:40:39.021Z,17.60
2022-08-17T18:43:14.087Z,17.27
2022-08-17T18:45:48.122Z,17.23
2022-08-17T18:48:23.926Z,18.43
2022-08-17T18:50:54.637Z,19.53
2022-08-17T18:53:39.171Z,19.50
2022-08-17T18:56:30.686Z,19.53
2022-08-17T18:59:35.030Z,18.37
2022-08-17T19:02:39.107Z,20.00
2022-08-17T19:05:30.634Z,21.90
2022-08-17T19:08:20.067Z,20.87
2022-08-17T19:10:52.705Z,21.47
2022-08-17T19:13:27.021Z,20.70
2022-08-17T19:16:14.612Z,21.60
2022-08-17T19:18:50.040Z,19.83
2022-08-17T19:21:25.079Z,19.90
2022-08-17T19:23:58.862Z,18.70
2022-08-17T19:26:53.561Z,17.60
2022-08-17T19:29:35.644Z,18.37
2022-08-17T19:32:16.319Z,17.80
2022-08-17T19:34:48.396Z,17.73
2022-08-17T19:37:37.539Z,18.37
2022-08-17T19:40:41.906Z,21.43
2022-08-17T19:43:14.868Z,19.80
2022-08-17T19:45:56.404Z,17.70
2022-08-17T19:48:38.339Z,18.60
2022-08-17T19:51:12.655Z,16.77
2022-08-17T19:54:05.026Z,15.53
2022-08-17T19:56:45.089Z,15.73
2022-08-17T19:59:21.277Z,16.97
2022-08-17T20:01:54.544Z,16.13
2022-08-17T20:04:37.519Z,15.00
2022-08-17T20:07:16.560Z,16.30
2022-08-17T20:09:51.697Z,14.80
2022-08-17T20:12:24.894Z,15.00
2022-08-17T20:14:57.485Z,14.77
